createdAt,value
2023-04-10T00:00:04.831Z,29.30
2023-04-10T00:02:32.915Z,30.07
2023-04-10T00:05:01.420Z,29.77
2023-04-10T00:07:29.073Z,27.93
2023-04-10T00:09:56.533Z,27.23
2023-04-10T00:12:24.204Z,30.63
2023-04-10T00:14:51.717Z,31.23
2023-04-10T00:17:19.230Z,30.20
2023-04-10T00:19:46.755Z,30.23
2023-04-10T00:22:14.911Z,29.27
2023-04-10T00:24:42.391Z,28.00
2023-04-10T00:27:10.081Z,28.47
2023-04-10T00:29:37.624Z,30.10
2023-04-10T00:32:05.105Z,29.07
2023-04-10T00:34:32.772Z,30.50
2023-04-10T00:37:00.688Z,30.60
2023-04-10T00:39:28.232Z,29.13
2023-04-10T00:41:56.309Z,29.93
2023-04-10T00:44:23.756Z,29.73
2023-04-10T00:46:51.600Z,29.90
2023-04-10T00:49:19.177Z,35.50
2023-04-10T00:51:48.146Z,34.07
2023-04-10T00:54:15.767Z,32.53
2023-04-10T00:56:45.240Z,32.77
2023-04-10T00:59:12.810Z,43.83
2023-04-10T01:01:40.649Z,39.90
2023-04-10T01:04:09.959Z,36.67
2023-04-10T01:06:49.355Z,32.83
2023-04-10T01:09:48.047Z,31.70
2023-04-10T01:12:57.035Z,35.40
2023-04-10T01:15:28.995Z,38.73
2023-04-10T01:18:24.535Z,33.97
2023-04-10T01:20:52.058Z,33.73
2023-04-10T01:23:49.986Z,35.67
2023-04-10T01:26:43.480Z,35.87
2023-04-10T01:29:19.904Z,37.10
2023-04-10T01:31:57.600Z,36.30
2023-04-10T01:34:37.009Z,33.20
2023-04-10T01:37:18.490Z,30.50
2023-04-10T01:39:51.651Z,30.23
2023-04-10T01:42:21.598Z,29.50
2023-04-10T01:44:50.818Z,31.40
2023-04-10T01:47:19.250Z,31.97
2023-04-10T01:49:49.872Z,33.70
2023-04-10T01:52:18.613Z,32.33
2023-04-10T01:54:49.040Z,31.17
2023-04-10T01:57:17.675Z,31.90
2023-04-10T01:59:45.769Z,31.83
2023-04-10T02:02:13.354Z,29.90
2023-04-10T02:04:41.131Z,31.63
2023-04-10T02:07:21.196Z,30.70
2023-04-10T02:10:00.677Z,29.67
2023-04-10T02:12:53.926Z,31.07
2023-04-10T02:15:24.881Z,30.00
2023-04-10T02:17:52.930Z,29.00
2023-04-10T02:20:22.588Z,29.20
2023-04-10T02:22:50.917Z,28.30
2023-04-10T02:25:18.497Z,28.30
2023-04-10T02:27:46.140Z,26.63
2023-04-10T02:30:13.665Z,28.77
2023-04-10T02:32:41.186Z,28.30
2023-04-10T02:35:09.159Z,26.23
2023-04-10T02:37:37.330Z,25.40
2023-04-10T02:40:05.876Z,26.83
2023-04-10T02:42:33.384Z,27.97
2023-04-10T02:45:01.162Z,27.70
2023-04-10T02:47:28.716Z,27.73
2023-04-10T02:49:57.174Z,27.33
2023-04-10T02:52:24.656Z,26.73
2023-04-10T02:54:52.656Z,25.73
2023-04-10T02:57:20.163Z,24.87
2023-04-10T02:59:53.883Z,24.77
2023-04-10T03:02:21.950Z,24.70
2023-04-10T03:04:49.593Z,32.33
2023-04-10T03:07:17.331Z,36.77
2023-04-10T03:09:44.780Z,37.57
2023-04-10T03:12:12.256Z,25.63
2023-04-10T03:14:40.868Z,24.80
2023-04-10T03:17:08.381Z,24.77
2023-04-10T03:19:35.845Z,24.37
2023-04-10T03:22:03.890Z,26.87
2023-04-10T03:24:31.370Z,25.20
2023-04-10T03:26:58.913Z,26.27
2023-04-10T03:29:26.644Z,26.20
2023-04-10T03:31:54.210Z,25.53
2023-04-10T03:34:21.716Z,25.30
2023-04-10T03:36:49.253Z,26.23
2023-04-10T03:39:16.797Z,26.90
2023-04-10T03:41:44.248Z,25.70
2023-04-10T03:44:11.728Z,24.67
2023-04-10T03:46:39.290Z,25.97
2023-04-10T03:49:06.838Z,26.47
2023-04-10T03:51:34.323Z,27.43
2023-04-10T03:54:01.758Z,24.50
2023-04-10T03:56:29.236Z,25.27
2023-04-10T03:58:56.737Z,27.13
2023-04-10T04:01:24.177Z,27.17
2023-04-10T04:03:51.913Z,27.47
2023-04-10T04:06:19.516Z,26.53
2023-04-10T04:08:47.014Z,25.97
2023-04-10T04:11:14.512Z,26.03
2023-04-10T04:13:42.040Z,27.07
2023-04-10T04:16:11.144Z,24.13
2023-04-10T04:18:38.954Z,25.90
2023-04-10T04:21:08.661Z,27.27
2023-04-10T04:23:36.170Z,27.80
2023-04-10T04:26:03.765Z,29.07
2023-04-10T04:28:31.291Z,30.03
2023-04-10T04:30:58.767Z,26.33
2023-04-10T04:33:26.272Z,25.63
2023-04-10T04:35:53.741Z,30.23
2023-04-10T04:38:21.342Z,26.97
2023-04-10T04:40:48.798Z,25.60
2023-04-10T04:43:16.283Z,28.83
2023-04-10T04:45:43.836Z,28.60
2023-04-10T04:48:11.377Z,26.83
2023-04-10T04:50:42.161Z,23.80
2023-04-10T04:53:10.140Z,24.23
2023-04-10T04:55:37.668Z,24.23
2023-04-10T04:58:05.227Z,21.53
2023-04-10T05:00:32.887Z,22.47
2023-04-10T05:03:00.695Z,26.53
2023-04-10T05:05:28.345Z,26.10
2023-04-10T05:07:55.878Z,25.77
2023-04-10T05:10:23.443Z,24.60
2023-04-10T05:12:51.273Z,25.77
2023-04-10T05:15:18.849Z,27.40
2023-04-10T05:17:46.910Z,28.47
2023-04-10T05:20:14.428Z,26.50
2023-04-10T05:22:41.942Z,28.63
2023-04-10T05:25:09.812Z,28.37
2023-04-10T05:27:37.448Z,28.07
2023-04-10T05:30:05.409Z,27.83
2023-04-10T05:32:33.029Z,26.43
2023-04-10T05:35:00.683Z,27.10
2023-04-10T05:37:28.181Z,25.33
2023-04-10T05:39:55.636Z,23.77
2023-04-10T05:42:23.891Z,24.60
2023-04-10T05:44:52.696Z,24.30
2023-04-10T05:47:20.208Z,23.27
2023-04-10T05:49:47.790Z,23.10
2023-04-10T05:52:15.244Z,23.77
2023-04-10T05:54:42.724Z,24.13
2023-04-10T05:57:10.180Z,23.60
2023-04-10T05:59:37.712Z,25.60
2023-04-10T06:02:06.357Z,25.10
2023-04-10T06:04:34.110Z,27.57
2023-04-10T06:07:01.864Z,28.47
2023-04-10T06:09:29.414Z,31.03
2023-04-10T06:11:56.944Z,27.90
2023-04-10T06:14:24.429Z,30.17
2023-04-10T06:16:51.923Z,29.43
2023-04-10T06:19:19.388Z,28.03
2023-04-10T06:21:47.070Z,26.47
2023-04-10T06:24:15.943Z,24.60
2023-04-10T06:26:43.435Z,22.77
2023-04-10T06:29:10.976Z,23.47
2023-04-10T06:31:38.647Z,21.97
2023-04-10T06:34:06.350Z,24.77
2023-04-10T06:36:33.865Z,23.90
2023-04-10T06:39:02.885Z,25.37
2023-04-10T06:41:30.543Z,23.67
2023-04-10T06:43:57.990Z,22.13
2023-04-10T06:46:25.525Z,24.07
2023-04-10T06:48:53.280Z,22.37
2023-04-10T06:51:20.842Z,24.07
2023-04-10T06:53:48.377Z,24.10
2023-04-10T06:56:15.900Z,23.93
2023-04-10T06:58:43.343Z,24.37
2023-04-10T07:01:11.207Z,23.53
2023-04-10T07:03:38.662Z,23.40
2023-04-10T07:06:06.666Z,23.40
2023-04-10T07:08:34.118Z,24.70
2023-04-10T07:11:01.631Z,23.87
2023-04-10T07:13:29.186Z,23.77
2023-04-10T07:15:56.824Z,23.33
2023-04-10T07:18:24.372Z,22.97
2023-04-10T07:20:52.295Z,22.50
2023-04-10T07:23:20.623Z,22.90
2023-04-10T07:25:48.143Z,22.70
2023-04-10T07:28:15.738Z,22.53
2023-04-10T07:30:43.286Z,23.67
2023-04-10T07:33:10.838Z,22.20
2023-04-10T07:35:38.406Z,22.40
2023-04-10T07:38:05.998Z,22.73
2023-04-10T07:40:33.434Z,21.57
2023-04-10T07:43:00.900Z,21.57
2023-04-10T07:45:28.797Z,25.53
2023-04-10T07:47:56.535Z,28.10
2023-04-10T07:50:24.100Z,21.73
2023-04-10T07:52:51.634Z,22.47
2023-04-10T07:55:19.398Z,20.77
2023-04-10T07:57:46.975Z,20.63
2023-04-10T08:00:15.171Z,21.20
2023-04-10T08:02:42.827Z,21.10
2023-04-10T08:05:10.567Z,21.13
2023-04-10T08:07:38.443Z,21.63
2023-04-10T08:10:06.620Z,21.93
2023-04-10T08:12:34.976Z,23.00
2023-04-10T08:15:02.565Z,22.37
2023-04-10T08:17:30.015Z,22.17
2023-04-10T08:19:57.587Z,22.80
2023-04-10T08:22:25.122Z,22.40
2023-04-10T08:24:52.684Z,21.53
2023-04-10T08:27:20.169Z,23.23
2023-04-10T08:29:47.774Z,22.77
2023-04-10T08:32:15.363Z,22.90
2023-04-10T08:34:42.850Z,22.63
2023-04-10T08:37:12.400Z,22.50
2023-04-10T08:39:40.026Z,24.57
2023-04-10T08:42:08.219Z,25.10
2023-04-10T08:44:37.460Z,26.07
2023-04-10T08:47:06.535Z,25.37
2023-04-10T08:49:55.641Z,24.83
2023-04-10T08:52:28.307Z,23.77
2023-04-10T08:54:58.732Z,24.83
2023-04-10T08:57:27.472Z,24.20
2023-04-10T08:59:55.068Z,25.00
2023-04-10T09:02:23.026Z,25.57
2023-04-10T09:04:56.438Z,26.40
2023-04-10T09:07:23.951Z,26.77
2023-04-10T09:09:51.496Z,26.00
2023-04-10T09:12:19.011Z,24.43
2023-04-10T09:14:46.540Z,23.33
2023-04-10T09:17:19.397Z,24.53
2023-04-10T09:19:53.057Z,24.47
2023-04-10T09:22:32.364Z,21.73
2023-04-10T09:25:02.413Z,23.67
2023-04-10T09:27:38.626Z,22.50
2023-04-10T09:30:09.354Z,21.77
2023-04-10T09:32:45.104Z,19.80
2023-04-10T09:35:15.609Z,20.23
2023-04-10T09:37:47.052Z,19.13
2023-04-10T09:40:24.772Z,18.93
2023-04-10T09:42:53.783Z,18.83
2023-04-10T09:45:22.748Z,18.97
2023-04-10T09:48:06.073Z,19.20
2023-04-10T09:50:40.433Z,18.80
2023-04-10T09:53:10.736Z,19.37
2023-04-10T09:55:38.567Z,19.90
2023-04-10T09:58:07.514Z,19.03
2023-04-10T10:00:50.779Z,19.03
2023-04-10T10:03:21.487Z,19.10
2023-04-10T10:05:52.138Z,19.37
2023-04-10T10:08:20.404Z,19.17
2023-04-10T10:10:54.751Z,18.50
2023-04-10T10:13:30.583Z,18.83
2023-04-10T10:16:10.135Z,17.97
2023-04-10T10:19:06.930Z,18.10
2023-04-10T10:21:35.272Z,21.23
2023-04-10T10:24:08.595Z,19.57
2023-04-10T10:26:39.274Z,17.67
2023-04-10T10:29:14.300Z,18.20
2023-04-10T10:31:42.865Z,18.77
2023-04-10T10:34:11.239Z,16.43
2023-04-10T10:36:41.618Z,15.83
2023-04-10T10:39:33.449Z,16.60
2023-04-10T10:42:15.050Z,17.13
2023-04-10T10:45:11.043Z,18.20
2023-04-10T10:47:58.924Z,19.07
2023-04-10T10:50:59.631Z,19.30
2023-04-10T10:53:41.263Z,18.27
2023-04-10T11:14:10.188Z,12.70
2023-04-10T11:16:47.269Z,13.60
2023-04-10T11:19:19.284Z,13.50
2023-04-10T11:22:02.535Z,13.53
2023-04-10T11:24:51.541Z,14.67
2023-04-10T11:27:39.672Z,14.17
2023-04-10T11:30:34.190Z,13.67
2023-04-10T11:33:04.312Z,13.70
2023-04-10T11:35:33.109Z,12.97
2023-04-10T11:38:18.380Z,13.23
2023-04-10T11:41:07.031Z,12.73
2023-04-10T11:43:35.376Z,11.43
2023-04-10T11:46:08.149Z,12.47
2023-04-10T11:48:37.783Z,12.87
2023-04-10T11:51:13.852Z,13.23
2023-04-10T11:53:42.568Z,13.37
2023-04-10T11:56:22.167Z,12.50
2023-04-10T11:58:54.877Z,12.73
2023-04-10T12:01:23.948Z,11.90
2023-04-10T12:03:51.942Z,12.10
2023-04-10T12:06:20.174Z,11.77
2023-04-10T12:08:51.755Z,11.03
2023-04-10T12:11:22.717Z,12.10
2023-04-10T12:13:55.480Z,11.50
2023-04-10T12:16:27.545Z,11.67
2023-04-10T12:18:56.004Z,11.50
2023-04-10T12:21:23.802Z,11.77
2023-04-10T12:23:52.310Z,11.07
2023-04-10T12:26:19.804Z,11.03
2023-04-10T12:28:57.918Z,10.80
2023-04-10T12:31:35.319Z,10.90
2023-04-10T12:34:05.639Z,11.97
2023-04-10T12:36:35.308Z,10.97
2023-04-10T12:39:05.123Z,15.00
2023-04-10T12:41:35.153Z,14.77
2023-04-10T12:44:13.993Z,12.30
2023-04-10T12:46:43.465Z,10.30
2023-04-10T12:49:19.061Z,10.67
2023-04-10T12:51:52.287Z,10.10
2023-04-10T12:54:33.618Z,11.10
2023-04-10T12:57:03.930Z,11.37
2023-04-10T12:59:32.869Z,11.43
2023-04-10T13:02:00.723Z,12.80
2023-04-10T13:04:32.427Z,12.13
2023-04-10T13:07:00.009Z,11.87
2023-04-10T13:09:28.022Z,11.27
2023-04-10T13:11:56.982Z,12.40
2023-04-10T13:14:24.443Z,13.53
2023-04-10T13:16:52.002Z,12.33
2023-04-10T13:19:19.463Z,14.18
2023-04-10T13:21:46.918Z,13.77
2023-04-10T13:24:16.457Z,12.43
2023-04-10T13:26:44.665Z,13.83
2023-04-10T13:29:12.262Z,13.83
2023-04-10T13:31:39.794Z,12.77
2023-04-10T13:34:07.282Z,11.53
2023-04-10T13:36:34.885Z,11.93
2023-04-10T13:39:02.984Z,12.07
2023-04-10T13:41:30.647Z,11.07
2023-04-10T13:43:58.144Z,11.43
2023-04-10T13:46:26.646Z,10.73
2023-04-10T13:48:54.128Z,10.53
2023-04-10T13:51:21.598Z,10.70
2023-04-10T13:53:49.047Z,11.50
2023-04-10T13:56:16.544Z,10.33
2023-04-10T13:58:46.803Z,10.53
2023-04-10T14:01:14.275Z,11.37
2023-04-10T14:03:41.862Z,12.13
2023-04-10T14:06:09.450Z,11.32
2023-04-10T14:08:36.969Z,11.27
2023-04-10T14:11:04.517Z,12.97
2023-04-10T14:13:32.014Z,13.20
2023-04-10T14:15:59.480Z,13.43
2023-04-10T14:18:27.040Z,12.80
2023-04-10T14:20:54.798Z,14.33
2023-04-10T14:23:22.819Z,12.97
2023-04-10T14:25:51.223Z,12.47
2023-04-10T14:28:18.789Z,12.47
2023-04-10T14:30:48.627Z,12.07
2023-04-10T14:33:17.577Z,12.77
2023-04-10T14:35:47.327Z,11.73
2023-04-10T14:38:16.360Z,12.17
2023-04-10T14:40:45.903Z,11.33
2023-04-10T14:43:13.388Z,10.93
2023-04-10T14:45:41.065Z,10.50
2023-04-10T14:48:09.535Z,11.47
2023-04-10T14:50:37.101Z,10.80
2023-04-10T14:53:06.298Z,11.23
2023-04-10T14:55:33.779Z,12.27
2023-04-10T14:58:01.237Z,11.53
2023-04-10T15:00:29.950Z,11.83
2023-04-10T15:02:57.597Z,11.30
2023-04-10T15:05:27.273Z,11.00
2023-04-10T15:07:55.242Z,11.50
2023-04-10T15:10:22.934Z,11.40
2023-04-10T15:12:50.570Z,11.00
2023-04-10T15:15:19.004Z,11.43
2023-04-10T15:17:46.460Z,10.93
2023-04-10T15:20:14.321Z,11.40
2023-04-10T15:22:45.254Z,11.10
2023-04-10T15:25:12.781Z,11.10
2023-04-10T15:27:40.347Z,11.67
2023-04-10T15:30:08.563Z,12.70
2023-04-10T15:32:38.604Z,16.20
2023-04-10T15:35:07.198Z,11.13
2023-04-10T15:37:37.787Z,10.98
2023-04-10T15:40:06.536Z,13.55
2023-04-10T15:42:35.127Z,11.35
2023-04-10T15:45:03.537Z,11.52
2023-04-10T15:47:31.237Z,11.60
2023-04-10T15:49:59.188Z,11.63
2023-04-10T15:52:26.748Z,13.20
2023-04-10T15:54:54.274Z,11.90
2023-04-10T15:57:21.730Z,12.20
2023-04-10T15:59:53.898Z,11.98
2023-04-10T16:02:21.435Z,11.35
2023-04-10T16:04:49.241Z,12.18
2023-04-10T16:07:16.832Z,10.75
2023-04-10T16:09:44.351Z,10.50
2023-04-10T16:12:13.108Z,11.15
2023-04-10T16:14:40.634Z,11.07
2023-04-10T16:17:08.098Z,9.80
2023-04-10T16:19:35.587Z,11.45
2023-04-10T16:22:03.038Z,10.47
2023-04-10T16:24:30.582Z,16.00
2023-04-10T16:26:58.039Z,13.37
2023-04-10T16:29:25.632Z,10.90
2023-04-10T16:31:53.326Z,10.90
2023-04-10T16:34:20.872Z,10.67
2023-04-10T16:36:48.346Z,13.43
2023-04-10T16:39:15.817Z,14.37
2023-04-10T16:41:44.909Z,12.63
2023-04-10T16:44:12.405Z,11.67
2023-04-10T16:46:39.958Z,11.30
2023-04-10T16:49:07.670Z,12.33
2023-04-10T16:51:35.192Z,11.97
2023-04-10T16:54:03.842Z,11.60
2023-04-10T16:56:34.560Z,10.97
2023-04-10T16:59:02.137Z,10.63
2023-04-10T17:01:30.234Z,11.23
2023-04-10T17:03:57.832Z,12.10
2023-04-10T17:06:25.991Z,12.63
2023-04-10T17:08:53.647Z,14.37
2023-04-10T17:11:21.266Z,16.53
2023-04-10T17:13:48.722Z,15.70
2023-04-10T17:16:16.451Z,16.03
2023-04-10T17:18:44.214Z,16.13
2023-04-10T17:21:13.264Z,14.07
2023-04-10T17:23:41.470Z,14.90
2023-04-10T17:26:16.917Z,15.43
2023-04-10T17:28:47.839Z,16.23
2023-04-10T17:31:16.598Z,17.23
2023-04-10T17:33:44.659Z,17.73
2023-04-10T17:36:13.661Z,19.40
2023-04-10T17:38:42.362Z,22.87
2023-04-10T17:41:10.694Z,23.20
2023-04-10T17:43:38.216Z,22.67
2023-04-10T17:46:06.141Z,22.50
2023-04-10T17:48:34.645Z,21.93
2023-04-10T17:51:07.491Z,17.50
2023-04-10T17:53:35.048Z,18.20
2023-04-10T17:56:04.136Z,17.30
2023-04-10T17:58:31.674Z,34.23
2023-04-10T18:00:59.214Z,29.37
2023-04-10T18:03:26.913Z,30.83
2023-04-10T18:05:54.448Z,29.70
2023-04-10T18:08:21.938Z,24.07
2023-04-10T18:10:49.408Z,21.20
2023-04-10T18:13:16.921Z,20.97
2023-04-10T18:15:44.428Z,20.93
2023-04-10T18:18:12.066Z,20.67
2023-04-10T18:20:39.584Z,21.53
2023-04-10T18:23:07.170Z,21.40
2023-04-10T18:25:35.213Z,22.73
2023-04-10T18:30:33.153Z,23.40
2023-04-10T18:33:02.106Z,21.40
2023-04-10T18:35:31.424Z,23.23
2023-04-10T18:37:58.973Z,22.37
2023-04-10T18:40:26.552Z,22.13
2023-04-10T18:42:54.005Z,24.17
2023-04-10T18:45:21.731Z,27.50
2023-04-10T18:47:49.277Z,30.23
2023-04-10T18:50:16.892Z,21.17
2023-04-10T18:52:44.426Z,24.90
2023-04-10T18:55:12.049Z,23.20
2023-04-10T18:57:39.480Z,25.27
2023-04-10T19:00:08.438Z,25.47
2023-04-10T19:02:36.119Z,27.67
2023-04-10T19:05:03.825Z,30.03
2023-04-10T19:07:33.194Z,28.17
2023-04-10T19:10:00.737Z,29.63
2023-04-10T19:12:28.252Z,27.80
2023-04-10T19:14:55.705Z,27.87
2023-04-10T19:17:25.050Z,25.73
2023-04-10T19:19:53.431Z,24.37
2023-04-10T19:22:21.066Z,22.00
2023-04-10T19:24:48.615Z,21.20
2023-04-10T19:27:16.084Z,20.47
2023-04-10T19:29:43.544Z,23.27
2023-04-10T19:32:11.181Z,26.70
2023-04-10T19:34:38.665Z,27.97
2023-04-10T19:37:06.276Z,33.20
2023-04-10T19:39:33.804Z,45.27
2023-04-10T19:42:03.406Z,33.30
2023-04-10T19:44:30.923Z,30.77
2023-04-10T19:46:58.483Z,36.00
2023-04-10T19:49:27.228Z,31.00
2023-04-10T19:51:55.988Z,30.27
2023-04-10T19:54:23.684Z,29.97
2023-04-10T19:56:51.148Z,32.83
2023-04-10T19:59:18.678Z,45.20
2023-04-10T20:01:46.547Z,40.53
2023-04-10T20:04:14.195Z,44.90
2023-04-10T20:06:43.261Z,40.30
2023-04-10T20:09:11.336Z,40.73
2023-04-10T20:11:38.833Z,41.23
2023-04-10T20:14:06.464Z,33.17
2023-04-10T20:16:34.163Z,35.00
2023-04-10T20:19:01.788Z,33.10
2023-04-10T20:21:29.344Z,32.80
2023-04-10T20:23:57.844Z,32.43
2023-04-10T20:26:26.015Z,32.90
2023-04-10T20:28:54.454Z,36.80
2023-04-10T20:31:22.273Z,36.90
2023-04-10T20:33:49.851Z,37.07
2023-04-10T20:36:17.968Z,38.17
2023-04-10T20:38:45.596Z,33.27
2023-04-10T20:41:13.127Z,43.37
2023-04-10T20:43:40.861Z,40.97
2023-04-10T20:46:09.174Z,43.13
2023-04-10T20:48:38.238Z,47.50
2023-04-10T20:51:06.447Z,56.67
2023-04-10T20:53:34.443Z,44.17
2023-04-10T20:56:04.100Z,36.90
2023-04-10T20:58:33.638Z,58.83
2023-04-10T21:01:01.354Z,45.20
2023-04-10T21:03:30.003Z,53.87
2023-04-10T21:05:57.611Z,57.50
2023-04-10T21:08:25.079Z,40.73
2023-04-10T21:10:52.547Z,52.50
2023-04-10T21:13:20.034Z,38.57
2023-04-10T21:15:49.709Z,36.30
2023-04-10T21:18:17.361Z,34.73
2023-04-10T21:20:45.638Z,35.47
2023-04-10T21:23:13.161Z,37.03
2023-04-10T21:25:40.807Z,38.13
2023-04-10T21:28:08.277Z,36.70
2023-04-10T21:30:35.797Z,35.93
2023-04-10T21:33:03.432Z,34.47
2023-04-10T21:35:30.975Z,37.50
2023-04-10T21:38:01.989Z,31.00
2023-04-10T21:40:34.712Z,32.60
2023-04-10T21:43:02.952Z,33.23
2023-04-10T21:45:31.887Z,31.83
2023-04-10T21:48:00.643Z,32.97
2023-04-10T21:50:28.220Z,31.73
2023-04-10T21:52:55.807Z,34.23
2023-04-10T21:55:23.364Z,37.47
2023-04-10T21:57:50.920Z,64.23
2023-04-10T22:00:19.982Z,35.27
2023-04-10T22:02:49.058Z,32.63
2023-04-10T22:05:16.708Z,34.03
2023-04-10T22:07:44.193Z,32.40
2023-04-10T22:10:11.710Z,31.20
2023-04-10T22:12:39.203Z,33.17
2023-04-10T22:15:08.054Z,28.87
2023-04-10T22:17:35.600Z,28.53
2023-04-10T22:20:05.112Z,35.47
2023-04-10T22:22:32.877Z,30.90
2023-04-10T22:25:00.575Z,32.17
2023-04-10T22:27:28.129Z,29.37
2023-04-10T22:30:03.460Z,29.03
2023-04-10T22:32:32.544Z,34.07
2023-04-10T22:35:00.312Z,30.30
2023-04-10T22:37:28.432Z,29.53
2023-04-10T22:40:00.665Z,32.17
2023-04-10T22:42:30.514Z,30.33
2023-04-10T22:44:59.271Z,33.07
2023-04-10T22:47:27.217Z,35.67
2023-04-10T22:49:55.028Z,36.67
2023-04-10T22:52:22.567Z,35.87
2023-04-10T22:54:50.060Z,35.97
2023-04-10T22:57:17.744Z,32.37
2023-04-10T22:59:45.197Z,33.97
2023-04-10T23:02:12.798Z,34.67
2023-04-10T23:04:40.352Z,31.40
2023-04-10T23:07:07.965Z,31.03
2023-04-10T23:09:35.602Z,28.80
2023-04-10T23:12:03.105Z,29.73
2023-04-10T23:14:30.709Z,30.10
2023-04-10T23:16:58.180Z,30.07
2023-04-10T23:19:25.871Z,31.13
2023-04-10T23:21:53.859Z,32.33
2023-04-10T23:24:21.366Z,30.23
2023-04-10T23:26:48.834Z,32.90
2023-04-10T23:29:16.297Z,33.67
2023-04-10T23:31:44.248Z,34.20
2023-04-10T23:34:11.832Z,35.13
2023-04-10T23:36:39.363Z,35.40
2023-04-10T23:39:06.850Z,36.83
2023-04-10T23:41:34.396Z,32.10
2023-04-10T23:44:01.911Z,35.10
2023-04-10T23:46:29.419Z,33.17
2023-04-10T23:48:56.981Z,34.80
2023-04-10T23:51:24.507Z,30.40
2023-04-10T23:53:51.975Z,32.93
2023-04-10T23:56:21.008Z,32.97
2023-04-10T23:58:48.523Z,31.53
